VLM weather

Teniente Coronel Rafael Pabón Airport
Villamontes, Tarija Department, Bolivia

Public forecast

Using degrees Celsius for public forecast. Weather courtesy of forecast.io.

Current aviation weather report (METAR) for Teniente Coronel Rafael Pabón Airport

Report is more than 2 hours old.

Retrieved 2019/11/13 19:00 UTC (2 hours ago):

SLVM 131900Z 18005KT 9999 BKN023 38/23 Q1003

Closest aviation forecast (TAF) to Teniente Coronel Rafael Pabón Airport

Forecast is more than 12 hours old.

Closest forecast is Yacuiba Airport, 44.5 nm (82.5 km) SSW. Retrieved 2019/10/03 00:00 UTC (1 month ago):

TAF SLYA 032200Z 0400/0424 00000KT 9999 FEW020 SCT070 TX21/0419Z TN15 /0411Z BECMG 0413/0415 14010KT SCT020 BKN070